KSHR/SHR METAR and TAF weather

Enter ICAO airport designator
Station Type Date Time Source
KSHR METAR 2018/12/12 11:53 UTC NOAA

KSHR 121153Z AUTO 13004KT 10SM SCT120 M01/M04 A2954 RMK AO2 SLP028 T10061044 10000 21061 58013


Station Type Date Time Source
KSHR Decoded METAR 2018/12/12 11:53 UTC NOAA

SHERIDAN COUNTY AIRPORT, WY, United States (KSHR) 44-46N 106-58W 1202M
Dec 12, 2018 - 06:53 AM EST / 2018.12.12 1153 UTC
Wind: from the SE (130 degrees) at 5 MPH (4 KT):0
Visibility: 10 mile(s):0
Sky conditions: partly cloudy
Temperature: 30.9 F (-0.6 C)
Windchill: 26 F (-3 C):1
Dew Point: 24.1 F (-4.4 C)
Relative Humidity: 75%
Pressure (altimeter): 29.54 in. Hg (1000 hPa)
Pressure tendency: 0.04 inches (1.3 hPa) lower than three hours ago
ob: KSHR 121153Z AUTO 13004KT 10SM SCT120 M01/M04 A2954 RMK AO2 SLP028 T10061044 10000 21061 58013
cycle: 12

Station Type Date Time Source
KSHR TAF 2018/12/12 12:22 UTC NOAA

TAF KSHR 121120Z 1212/1312 VRB05KT P6SM SKC
FM121400 28009KT P6SM VCSH BKN100
FM122000 31025G40KT P6SM SCT040 OVC070
FM130500 31020G30KT P6SM SCT040 OVC080


Example: see airport list